sensor_id;sensor_type;location;lat;lon;timestamp;pressure;altitude;pressure_sealevel;temperature;humidity
70254;BME280;57649;42.968;1.608;2024-02-21T00:01:14;98207.44;;;4.64;100.00
70254;BME280;57649;42.968;1.608;2024-02-21T00:03:40;98212.69;;;4.77;100.00
70254;BME280;57649;42.968;1.608;2024-02-21T00:06:05;98212.19;;;4.72;100.00
70254;BME280;57649;42.968;1.608;2024-02-21T00:08:31;98212.81;;;4.75;100.00
70254;BME280;57649;42.968;1.608;2024-02-21T00:10:58;98211.50;;;4.57;100.00
70254;BME280;57649;42.968;1.608;2024-02-21T00:13:26;98216.16;;;4.53;100.00
70254;BME280;57649;42.968;1.608;2024-02-21T00:15:54;98207.91;;;4.58;100.00
70254;BME280;57649;42.968;1.608;2024-02-21T00:18:19;98219.13;;;4.49;100.00
70254;BME280;57649;42.968;1.608;2024-02-21T00:20:45;98212.03;;;4.49;100.00
70254;BME280;57649;42.968;1.608;2024-02-21T00:23:13;98206.78;;;4.36;100.00
70254;BME280;57649;42.968;1.608;2024-02-21T00:25:38;98201.25;;;4.27;100.00
70254;BME280;57649;42.968;1.608;2024-02-21T00:28:08;98210.91;;;4.28;100.00
70254;BME280;57649;42.968;1.608;2024-02-21T00:30:34;98198.88;;;4.11;100.00
70254;BME280;57649;42.968;1.608;2024-02-21T00:32:59;98204.16;;;4.11;100.00
70254;BME280;57649;42.968;1.608;2024-02-21T00:35:25;98206.69;;;4.25;100.00
70254;BME280;57649;42.968;1.608;2024-02-21T00:41:28;98191.22;;;4.06;100.00
70254;BME280;57649;42.968;1.608;2024-02-21T00:44:03;98185.06;;;4.18;100.00
70254;BME280;57649;42.968;1.608;2024-02-21T00:46:43;98175.88;;;3.98;100.00
70254;BME280;57649;42.968;1.608;2024-02-21T00:49:20;98181.28;;;3.97;100.00
70254;BME280;57649;42.968;1.608;2024-02-21T00:51:45;98190.28;;;3.94;100.00
70254;BME280;57649;42.968;1.608;2024-02-21T00:54:11;98197.81;;;3.88;100.00
70254;BME280;57649;42.968;1.608;2024-02-21T00:56:36;98185.84;;;3.82;100.00
70254;BME280;57649;42.968;1.608;2024-02-21T00:59:07;98194.63;;;3.82;100.00
70254;BME280;57649;42.968;1.608;2024-02-21T01:01:35;98205.22;;;3.95;100.00
70254;BME280;57649;42.968;1.608;2024-02-21T01:04:00;98198.78;;;3.99;100.00
70254;BME280;57649;42.968;1.608;2024-02-21T01:06:28;98190.03;;;4.10;100.00
70254;BME280;57649;42.968;1.608;2024-02-21T01:08:56;98182.72;;;4.14;100.00
70254;BME280;57649;42.968;1.608;2024-02-21T01:11:24;98190.44;;;4.30;100.00
70254;BME280;57649;42.968;1.608;2024-02-21T01:13:55;98161.31;;;4.17;100.00
70254;BME280;57649;42.968;1.608;2024-02-21T01:16:55;98165.31;;;4.35;100.00
70254;BME280;57649;42.968;1.608;2024-02-21T01:19:32;98144.78;;;4.13;100.00
70254;BME280;57649;42.968;1.608;2024-02-21T01:22:25;98142.91;;;4.02;100.00
70254;BME280;57649;42.968;1.608;2024-02-21T01:24:56;98140.97;;;4.04;100.00
70254;BME280;57649;42.968;1.608;2024-02-21T01:27:33;98141.22;;;4.01;100.00
70254;BME280;57649;42.968;1.608;2024-02-21T01:30:27;98136.44;;;3.94;100.00
70254;BME280;57649;42.968;1.608;2024-02-21T01:33:14;98131.03;;;3.95;100.00
70254;BME280;57649;42.968;1.608;2024-02-21T01:35:42;98124.34;;;4.02;100.00
70254;BME280;57649;42.968;1.608;2024-02-21T01:38:27;98113.81;;;4.14;100.00
70254;BME280;57649;42.968;1.608;2024-02-21T01:40:59;98102.13;;;4.05;100.00
70254;BME280;57649;42.968;1.608;2024-02-21T01:43:32;98080.44;;;3.87;100.00
70254;BME280;57649;42.968;1.608;2024-02-21T01:46:11;98111.34;;;3.99;100.00
70254;BME280;57649;42.968;1.608;2024-02-21T01:48:38;98094.47;;;4.00;100.00
70254;BME280;57649;42.968;1.608;2024-02-21T01:51:04;98101.88;;;4.08;100.00
70254;BME280;57649;42.968;1.608;2024-02-21T01:53:42;98072.50;;;4.11;100.00
70254;BME280;57649;42.968;1.608;2024-02-21T01:56:08;98063.00;;;4.09;100.00
70254;BME280;57649;42.968;1.608;2024-02-21T01:58:36;98075.13;;;4.24;100.00
70254;BME280;57649;42.968;1.608;2024-02-21T02:01:08;98061.97;;;4.22;100.00
70254;BME280;57649;42.968;1.608;2024-02-21T02:03:35;98047.94;;;4.33;100.00
70254;BME280;57649;42.968;1.608;2024-02-21T02:06:24;98036.97;;;4.14;100.00
70254;BME280;57649;42.968;1.608;2024-02-21T02:08:53;98041.34;;;4.15;100.00
70254;BME280;57649;42.968;1.608;2024-02-21T02:11:22;98022.31;;;3.97;100.00
70254;BME280;57649;42.968;1.608;2024-02-21T02:13:50;98022.53;;;3.94;100.00
70254;BME280;57649;42.968;1.608;2024-02-21T02:16:16;98018.47;;;4.01;100.00
70254;BME280;57649;42.968;1.608;2024-02-21T02:18:41;98001.97;;;3.97;100.00
70254;BME280;57649;42.968;1.608;2024-02-21T02:21:49;98019.19;;;4.16;100.00
70254;BME280;57649;42.968;1.608;2024-02-21T02:24:06;98014.31;;;4.10;100.00
70254;BME280;57649;42.968;1.608;2024-02-21T02:26:32;98019.78;;;4.19;100.00
70254;BME280;57649;42.968;1.608;2024-02-21T02:29:08;98015.63;;;4.28;100.00
70254;BME280;57649;42.968;1.608;2024-02-21T02:31:33;97999.16;;;4.12;100.00
70254;BME280;57649;42.968;1.608;2024-02-21T02:34:08;97994.78;;;4.23;100.00
70254;BME280;57649;42.968;1.608;2024-02-21T02:36:43;97987.44;;;4.27;100.00
70254;BME280;57649;42.968;1.608;2024-02-21T02:39:20;97993.72;;;4.37;100.00
70254;BME280;57649;42.968;1.608;2024-02-21T02:42:12;97994.00;;;4.46;100.00
70254;BME280;57649;42.968;1.608;2024-02-21T02:44:46;97981.00;;;4.54;100.00
70254;BME280;57649;42.968;1.608;2024-02-21T02:47:23;98003.56;;;4.59;100.00
70254;BME280;57649;42.968;1.608;2024-02-21T02:49:51;98003.56;;;4.59;100.00
70254;BME280;57649;42.968;1.608;2024-02-21T02:52:17;97996.41;;;4.49;100.00
70254;BME280;57649;42.968;1.608;2024-02-21T02:54:43;97997.28;;;4.49;100.00
70254;BME280;57649;42.968;1.608;2024-02-21T02:57:11;97988.13;;;4.53;100.00
70254;BME280;57649;42.968;1.608;2024-02-21T02:59:37;97975.97;;;4.51;100.00
70254;BME280;57649;42.968;1.608;2024-02-21T03:02:05;97984.59;;;4.41;100.00
70254;BME280;57649;42.968;1.608;2024-02-21T03:04:35;97988.81;;;4.44;100.00
70254;BME280;57649;42.968;1.608;2024-02-21T03:07:28;97986.69;;;4.49;100.00
70254;BME280;57649;42.968;1.608;2024-02-21T03:13:21;97993.03;;;4.47;100.00
70254;BME280;57649;42.968;1.608;2024-02-21T03:16:06;97972.44;;;4.15;100.00
70254;BME280;57649;42.968;1.608;2024-02-21T03:18:39;97974.72;;;4.19;100.00
70254;BME280;57649;42.968;1.608;2024-02-21T03:21:23;97969.00;;;4.26;100.00
70254;BME280;57649;42.968;1.608;2024-02-21T03:23:49;97966.84;;;4.31;100.00
70254;BME280;57649;42.968;1.608;2024-02-21T03:29:23;97970.25;;;4.44;100.00
70254;BME280;57649;42.968;1.608;2024-02-21T03:31:57;97959.75;;;4.42;100.00
70254;BME280;57649;42.968;1.608;2024-02-21T03:34:25;97978.06;;;4.34;100.00
70254;BME280;57649;42.968;1.608;2024-02-21T03:40:00;97973.13;;;4.05;100.00
70254;BME280;57649;42.968;1.608;2024-02-21T03:42:40;97984.50;;;4.19;100.00
70254;BME280;57649;42.968;1.608;2024-02-21T03:45:08;97958.38;;;3.90;100.00
70254;BME280;57649;42.968;1.608;2024-02-21T03:47:33;97981.28;;;4.02;100.00
70254;BME280;57649;42.968;1.608;2024-02-21T03:49:59;97966.38;;;4.01;100.00
70254;BME280;57649;42.968;1.608;2024-02-21T03:52:25;97975.03;;;4.03;100.00
70254;BME280;57649;42.968;1.608;2024-02-21T03:54:50;97960.50;;;3.85;100.00
70254;BME280;57649;42.968;1.608;2024-02-21T03:57:16;97958.06;;;3.82;100.00
70254;BME280;57649;42.968;1.608;2024-02-21T03:59:42;97969.69;;;3.92;100.00
70254;BME280;57649;42.968;1.608;2024-02-21T04:02:08;97972.34;;;3.92;100.00
70254;BME280;57649;42.968;1.608;2024-02-21T04:04:43;97964.50;;;3.91;100.00
70254;BME280;57649;42.968;1.608;2024-02-21T04:07:13;97972.78;;;3.86;100.00
70254;BME280;57649;42.968;1.608;2024-02-21T04:09:41;97975.09;;;3.91;100.00
70254;BME280;57649;42.968;1.608;2024-02-21T04:12:09;97982.94;;;3.92;100.00
70254;BME280;57649;42.968;1.608;2024-02-21T04:14:39;97983.88;;;3.91;100.00
70254;BME280;57649;42.968;1.608;2024-02-21T04:17:12;97974.69;;;3.84;100.00
70254;BME280;57649;42.968;1.608;2024-02-21T04:19:45;97982.84;;;3.81;100.00
70254;BME280;57649;42.968;1.608;2024-02-21T04:22:20;97982.69;;;3.71;100.00
70254;BME280;57649;42.968;1.608;2024-02-21T04:25:19;97990.63;;;3.71;100.00
70254;BME280;57649;42.968;1.608;2024-02-21T04:28:00;97985.69;;;3.66;100.00
70254;BME280;57649;42.968;1.608;2024-02-21T04:30:33;97978.13;;;3.73;100.00
70254;BME280;57649;42.968;1.608;2024-02-21T04:33:04;97971.78;;;3.76;100.00
70254;BME280;57649;42.968;1.608;2024-02-21T04:35:45;97975.22;;;3.89;100.00
70254;BME280;57649;42.968;1.608;2024-02-21T04:38:21;97963.81;;;3.76;100.00
70254;BME280;57649;42.968;1.608;2024-02-21T04:41:04;97956.50;;;3.79;100.00
70254;BME280;57649;42.968;1.608;2024-02-21T04:43:30;97968.16;;;3.77;100.00
70254;BME280;57649;42.968;1.608;2024-02-21T04:45:58;97964.19;;;3.82;100.00
70254;BME280;57649;42.968;1.608;2024-02-21T04:48:23;97953.44;;;3.73;100.00
70254;BME280;57649;42.968;1.608;2024-02-21T04:50:49;97961.19;;;3.76;100.00
70254;BME280;57649;42.968;1.608;2024-02-21T04:53:14;97944.09;;;3.80;100.00
70254;BME280;57649;42.968;1.608;2024-02-21T04:55:43;97953.22;;;3.76;100.00
70254;BME280;57649;42.968;1.608;2024-02-21T04:58:08;97956.88;;;3.86;100.00
70254;BME280;57649;42.968;1.608;2024-02-21T05:00:45;97935.53;;;3.76;100.00
70254;BME280;57649;42.968;1.608;2024-02-21T05:03:10;97946.34;;;3.73;100.00
70254;BME280;57649;42.968;1.608;2024-02-21T05:05:36;97931.44;;;3.72;100.00
70254;BME280;57649;42.968;1.608;2024-02-21T05:08:01;97938.75;;;3.69;100.00
70254;BME280;57649;42.968;1.608;2024-02-21T05:10:29;97942.84;;;3.73;100.00
70254;BME280;57649;42.968;1.608;2024-02-21T05:12:54;97935.13;;;3.70;100.00
70254;BME280;57649;42.968;1.608;2024-02-21T05:15:20;97925.56;;;3.80;100.00
70254;BME280;57649;42.968;1.608;2024-02-21T05:17:48;97920.38;;;3.78;100.00
70254;BME280;57649;42.968;1.608;2024-02-21T05:20:13;97912.63;;;3.51;100.00
70254;BME280;57649;42.968;1.608;2024-02-21T05:23:02;97911.44;;;3.55;100.00
70254;BME280;57649;42.968;1.608;2024-02-21T05:25:34;97919.91;;;3.60;100.00
70254;BME280;57649;42.968;1.608;2024-02-21T05:28:07;97908.81;;;3.55;100.00
70254;BME280;57649;42.968;1.608;2024-02-21T05:34:08;97920.84;;;3.72;100.00
70254;BME280;57649;42.968;1.608;2024-02-21T05:39:33;97937.09;;;3.79;100.00
70254;BME280;57649;42.968;1.608;2024-02-21T05:52:09;97917.00;;;3.52;100.00
70254;BME280;57649;42.968;1.608;2024-02-21T05:55:11;97912.13;;;3.46;100.00
70254;BME280;57649;42.968;1.608;2024-02-21T06:00:52;97917.31;;;3.47;100.00
70254;BME280;57649;42.968;1.608;2024-02-21T06:03:20;97916.31;;;3.61;100.00
70254;BME280;57649;42.968;1.608;2024-02-21T06:05:46;97930.28;;;3.63;100.00
70254;BME280;57649;42.968;1.608;2024-02-21T06:08:11;97940.66;;;3.66;100.00
70254;BME280;57649;42.968;1.608;2024-02-21T06:10:39;97922.44;;;3.62;100.00
70254;BME280;57649;42.968;1.608;2024-02-21T06:13:07;97911.25;;;3.58;100.00
70254;BME280;57649;42.968;1.608;2024-02-21T06:15:41;97919.47;;;3.66;100.00
70254;BME280;57649;42.968;1.608;2024-02-21T06:21:33;97906.97;;;3.69;100.00
70254;BME280;57649;42.968;1.608;2024-02-21T06:24:10;97899.53;;;3.74;100.00
70254;BME280;57649;42.968;1.608;2024-02-21T06:27:18;97909.00;;;3.89;100.00
70254;BME280;57649;42.968;1.608;2024-02-21T06:29:46;97891.03;;;3.81;100.00
70254;BME280;57649;42.968;1.608;2024-02-21T06:32:12;97896.56;;;3.90;100.00
70254;BME280;57649;42.968;1.608;2024-02-21T06:34:40;97902.84;;;3.89;100.00
70254;BME280;57649;42.968;1.608;2024-02-21T06:37:09;97891.59;;;3.74;100.00
70254;BME280;57649;42.968;1.608;2024-02-21T06:39:49;97906.72;;;3.72;100.00
70254;BME280;57649;42.968;1.608;2024-02-21T06:42:23;97885.44;;;3.49;100.00
70254;BME280;57649;42.968;1.608;2024-02-21T06:44:49;97887.56;;;3.44;100.00
70254;BME280;57649;42.968;1.608;2024-02-21T06:47:17;97903.22;;;3.47;100.00
70254;BME280;57649;42.968;1.608;2024-02-21T06:49:43;97909.31;;;3.60;100.00
70254;BME280;57649;42.968;1.608;2024-02-21T06:52:08;97901.69;;;3.69;100.00
70254;BME280;57649;42.968;1.608;2024-02-21T06:54:37;97904.47;;;3.78;100.00
70254;BME280;57649;42.968;1.608;2024-02-21T06:57:04;97900.31;;;3.63;100.00
70254;BME280;57649;42.968;1.608;2024-02-21T06:59:41;97909.06;;;3.76;100.00
70254;BME280;57649;42.968;1.608;2024-02-21T07:02:24;97906.50;;;3.75;100.00
70254;BME280;57649;42.968;1.608;2024-02-21T07:04:52;97899.53;;;3.74;100.00
70254;BME280;57649;42.968;1.608;2024-02-21T07:07:25;97914.28;;;3.89;100.00
70254;BME280;57649;42.968;1.608;2024-02-21T07:09:51;97933.91;;;3.87;100.00
70254;BME280;57649;42.968;1.608;2024-02-21T07:12:18;97928.97;;;3.93;100.00
70254;BME280;57649;42.968;1.608;2024-02-21T07:14:44;97937.41;;;3.87;100.00
70254;BME280;57649;42.968;1.608;2024-02-21T07:17:10;97925.72;;;3.90;100.00
70254;BME280;57649;42.968;1.608;2024-02-21T07:19:35;97935.88;;;3.96;100.00
70254;BME280;57649;42.968;1.608;2024-02-21T07:22:01;97957.44;;;4.02;100.00
70254;BME280;57649;42.968;1.608;2024-02-21T07:24:31;97953.34;;;3.98;100.00
70254;BME280;57649;42.968;1.608;2024-02-21T07:26:57;97957.72;;;4.11;100.00
70254;BME280;57649;42.968;1.608;2024-02-21T07:29:34;97952.38;;;4.23;100.00
70254;BME280;57649;42.968;1.608;2024-02-21T07:32:02;97953.19;;;4.24;100.00
70254;BME280;57649;42.968;1.608;2024-02-21T07:34:28;97962.59;;;4.28;100.00
70254;BME280;57649;42.968;1.608;2024-02-21T07:36:55;97956.25;;;4.31;100.00
70254;BME280;57649;42.968;1.608;2024-02-21T07:39:21;97951.31;;;4.37;100.00
70254;BME280;57649;42.968;1.608;2024-02-21T07:41:46;97955.19;;;4.44;100.00
70254;BME280;57649;42.968;1.608;2024-02-21T07:44:13;97955.69;;;4.50;100.00
70254;BME280;57649;42.968;1.608;2024-02-21T07:46:38;97955.97;;;4.58;100.00
70254;BME280;57649;42.968;1.608;2024-02-21T07:49:04;97953.69;;;4.65;100.00
70254;BME280;57649;42.968;1.608;2024-02-21T07:51:29;97940.53;;;4.63;100.00
70254;BME280;57649;42.968;1.608;2024-02-21T07:53:54;97935.47;;;4.60;100.00
70254;BME280;57649;42.968;1.608;2024-02-21T07:56:23;97936.72;;;4.78;100.00
70254;BME280;57649;42.968;1.608;2024-02-21T07:58:51;97935.75;;;4.91;100.00
70254;BME280;57649;42.968;1.608;2024-02-21T08:01:19;97932.13;;;5.14;100.00
70254;BME280;57649;42.968;1.608;2024-02-21T08:03:46;97938.41;;;5.13;100.00
70254;BME280;57649;42.968;1.608;2024-02-21T08:06:12;97923.09;;;5.17;99.67
70254;BME280;57649;42.968;1.608;2024-02-21T08:08:40;97931.28;;;5.25;99.79
70254;BME280;57649;42.968;1.608;2024-02-21T08:11:08;97921.78;;;5.23;99.58
70254;BME280;57649;42.968;1.608;2024-02-21T08:13:34;97917.28;;;5.23;100.00
70254;BME280;57649;42.968;1.608;2024-02-21T08:16:05;97915.94;;;5.40;98.27
70254;BME280;57649;42.968;1.608;2024-02-21T08:18:33;97901.09;;;5.49;97.61
70254;BME280;57649;42.968;1.608;2024-02-21T08:21:04;97907.94;;;5.63;95.80
70254;BME280;57649;42.968;1.608;2024-02-21T08:23:30;97901.03;;;5.71;96.38
70254;BME280;57649;42.968;1.608;2024-02-21T08:25:56;97889.03;;;5.88;95.61
70254;BME280;57649;42.968;1.608;2024-02-21T08:28:23;97900.31;;;6.13;94.16
70254;BME280;57649;42.968;1.608;2024-02-21T08:30:50;97883.66;;;6.32;92.88
70254;BME280;57649;42.968;1.608;2024-02-21T08:33:15;97900.84;;;6.49;90.64
70254;BME280;57649;42.968;1.608;2024-02-21T08:35:44;97877.03;;;6.47;91.68
70254;BME280;57649;42.968;1.608;2024-02-21T08:38:09;97882.69;;;6.54;91.00
70254;BME280;57649;42.968;1.608;2024-02-21T08:40:34;97881.16;;;6.61;90.62
70254;BME280;57649;42.968;1.608;2024-02-21T08:43:00;97872.03;;;6.85;89.30
70254;BME280;57649;42.968;1.608;2024-02-21T08:45:26;97874.34;;;6.99;87.79
70254;BME280;57649;42.968;1.608;2024-02-21T08:47:51;97884.31;;;7.07;88.02
70254;BME280;57649;42.968;1.608;2024-02-21T08:50:17;97850.69;;;6.96;88.04
70254;BME280;57649;42.968;1.608;2024-02-21T08:52:42;97847.34;;;7.13;87.42
70254;BME280;57649;42.968;1.608;2024-02-21T08:55:10;97848.50;;;7.21;88.67
70254;BME280;57649;42.968;1.608;2024-02-21T08:57:36;97848.81;;;7.27;86.75
70254;BME280;57649;42.968;1.608;2024-02-21T09:00:05;97852.06;;;7.50;86.12
70254;BME280;57649;42.968;1.608;2024-02-21T09:02:41;97852.22;;;7.68;82.97
70254;BME280;57649;42.968;1.608;2024-02-21T09:05:13;97844.66;;;7.83;82.53
70254;BME280;57649;42.968;1.608;2024-02-21T09:07:45;97831.78;;;7.79;82.63
70254;BME280;57649;42.968;1.608;2024-02-21T09:10:11;97850.28;;;7.90;81.92
70254;BME280;57649;42.968;1.608;2024-02-21T09:12:36;97841.88;;;8.04;80.12
70254;BME280;57649;42.968;1.608;2024-02-21T09:15:01;97833.16;;;8.12;80.81
70254;BME280;57649;42.968;1.608;2024-02-21T09:17:27;97841.00;;;8.43;78.85
70254;BME280;57649;42.968;1.608;2024-02-21T09:19:54;97833.94;;;8.61;78.21
70254;BME280;57649;42.968;1.608;2024-02-21T09:22:21;97843.69;;;8.80;77.87
70254;BME280;57649;42.968;1.608;2024-02-21T09:24:48;97829.13;;;9.02;77.01
70254;BME280;57649;42.968;1.608;2024-02-21T09:27:14;97834.97;;;9.16;76.81
70254;BME280;57649;42.968;1.608;2024-02-21T09:29:39;97840.38;;;9.52;73.88
70254;BME280;57649;42.968;1.608;2024-02-21T09:32:05;97826.66;;;9.82;72.93
70254;BME280;57649;42.968;1.608;2024-02-21T09:34:31;97823.44;;;10.15;71.47
70254;BME280;57649;42.968;1.608;2024-02-21T09:36:58;97817.13;;;10.42;70.93
70254;BME280;57649;42.968;1.608;2024-02-21T09:39:24;97814.47;;;10.68;68.54
70254;BME280;57649;42.968;1.608;2024-02-21T09:42:15;97808.16;;;11.20;66.87
70254;BME280;57649;42.968;1.608;2024-02-21T09:45:10;97813.41;;;11.38;66.93
70254;BME280;57649;42.968;1.608;2024-02-21T09:47:44;97819.69;;;11.63;65.39
70254;BME280;57649;42.968;1.608;2024-02-21T09:50:14;97812.97;;;11.67;64.01
70254;BME280;57649;42.968;1.608;2024-02-21T09:52:42;97797.28;;;12.05;64.56
70254;BME280;57649;42.968;1.608;2024-02-21T09:59:05;97786.94;;;12.75;60.76
70254;BME280;57649;42.968;1.608;2024-02-21T10:01:45;97794.38;;;13.04;59.31
70254;BME280;57649;42.968;1.608;2024-02-21T10:04:21;97778.84;;;13.22;58.01
70254;BME280;57649;42.968;1.608;2024-02-21T10:09:37;97786.06;;;13.61;55.45
70254;BME280;57649;42.968;1.608;2024-02-21T10:12:29;97784.84;;;14.10;54.52
70254;BME280;57649;42.968;1.608;2024-02-21T10:15:11;97770.28;;;14.19;52.99
70254;BME280;57649;42.968;1.608;2024-02-21T10:17:37;97778.69;;;14.39;52.98
70254;BME280;57649;42.968;1.608;2024-02-21T10:20:12;97779.91;;;14.60;52.97
70254;BME280;57649;42.968;1.608;2024-02-21T10:22:38;97774.59;;;14.81;52.18
70254;BME280;57649;42.968;1.608;2024-02-21T10:25:10;97752.94;;;15.05;51.16
70254;BME280;57649;42.968;1.608;2024-02-21T10:27:36;97755.19;;;14.86;49.84
70254;BME280;57649;42.968;1.608;2024-02-21T10:30:03;97769.84;;;15.13;49.11
70254;BME280;57649;42.968;1.608;2024-02-21T10:32:31;97769.06;;;15.19;48.26
70254;BME280;57649;42.968;1.608;2024-02-21T10:35:04;97777.06;;;15.13;47.57
70254;BME280;57649;42.968;1.608;2024-02-21T10:40:33;97754.06;;;14.80;47.15
70254;BME280;57649;42.968;1.608;2024-02-21T10:43:27;97773.28;;;15.07;47.57
70254;BME280;57649;42.968;1.608;2024-02-21T10:46:21;97764.78;;;15.25;47.19
70254;BME280;57649;42.968;1.608;2024-02-21T10:58:03;97780.06;;;16.41;43.18
70254;BME280;57649;42.968;1.608;2024-02-21T11:00:41;97777.25;;;16.49;42.25
70254;BME280;57649;42.968;1.608;2024-02-21T11:03:10;97780.16;;;16.26;41.00
70254;BME280;57649;42.968;1.608;2024-02-21T11:05:39;97776.56;;;16.19;41.95
70254;BME280;57649;42.968;1.608;2024-02-21T11:08:19;97769.97;;;16.21;41.85
70254;BME280;57649;42.968;1.608;2024-02-21T11:10:50;97760.25;;;16.05;41.52
70254;BME280;57649;42.968;1.608;2024-02-21T11:13:15;97774.03;;;16.10;41.43
70254;BME280;57649;42.968;1.608;2024-02-21T11:15:41;97770.91;;;16.13;41.41
70254;BME280;57649;42.968;1.608;2024-02-21T11:18:09;97771.59;;;16.44;40.37
70254;BME280;57649;42.968;1.608;2024-02-21T11:20:36;97767.34;;;16.91;38.50
70254;BME280;57649;42.968;1.608;2024-02-21T11:23:01;97775.47;;;16.91;39.94
70254;BME280;57649;42.968;1.608;2024-02-21T11:25:28;97771.72;;;16.92;40.27
70254;BME280;57649;42.968;1.608;2024-02-21T11:28:05;97765.44;;;16.85;38.54
70254;BME280;57649;42.968;1.608;2024-02-21T11:30:32;97753.03;;;16.97;39.54
70254;BME280;57649;42.968;1.608;2024-02-21T11:33:03;97749.22;;;17.40;38.70
70254;BME280;57649;42.968;1.608;2024-02-21T11:35:34;97749.47;;;17.38;39.85
70254;BME280;57649;42.968;1.608;2024-02-21T11:38:10;97748.38;;;17.26;40.30
70254;BME280;57649;42.968;1.608;2024-02-21T11:40:41;97751.91;;;17.26;40.19
70254;BME280;57649;42.968;1.608;2024-02-21T11:43:10;97736.63;;;17.05;41.01
70254;BME280;57649;42.968;1.608;2024-02-21T11:45:38;97742.25;;;17.10;41.35
70254;BME280;57649;42.968;1.608;2024-02-21T11:51:40;97735.44;;;17.15;41.09
70254;BME280;57649;42.968;1.608;2024-02-21T11:54:16;97736.50;;;17.27;40.68
70254;BME280;57649;42.968;1.608;2024-02-21T11:56:48;97724.50;;;17.49;43.10
70254;BME280;57649;42.968;1.608;2024-02-21T11:59:16;97729.31;;;17.47;44.97
70254;BME280;57649;42.968;1.608;2024-02-21T12:01:44;97711.94;;;17.28;46.70
70254;BME280;57649;42.968;1.608;2024-02-21T12:04:21;97730.44;;;17.18;47.77
70254;BME280;57649;42.968;1.608;2024-02-21T12:07:10;97726.84;;;17.04;48.31
70254;BME280;57649;42.968;1.608;2024-02-21T12:10:03;97700.06;;;16.74;49.91
70254;BME280;57649;42.968;1.608;2024-02-21T12:12:40;97706.97;;;16.49;49.84
70254;BME280;57649;42.968;1.608;2024-02-21T12:15:08;97713.16;;;16.43;50.62
70254;BME280;57649;42.968;1.608;2024-02-21T12:17:40;97711.97;;;16.52;50.03
70254;BME280;57649;42.968;1.608;2024-02-21T12:20:06;97695.84;;;16.30;50.07
70254;BME280;57649;42.968;1.608;2024-02-21T12:22:35;97707.28;;;16.32;50.19
70254;BME280;57649;42.968;1.608;2024-02-21T12:25:36;97696.47;;;16.32;50.30
70254;BME280;57649;42.968;1.608;2024-02-21T12:27:55;97697.91;;;16.28;51.93
70254;BME280;57649;42.968;1.608;2024-02-21T12:30:21;97700.13;;;16.18;52.74
70254;BME280;57649;42.968;1.608;2024-02-21T12:32:47;97703.38;;;16.13;52.15
70254;BME280;57649;42.968;1.608;2024-02-21T12:35:13;97687.44;;;16.19;52.64
70254;BME280;57649;42.968;1.608;2024-02-21T12:37:39;97683.91;;;16.18;54.02
70254;BME280;57649;42.968;1.608;2024-02-21T12:40:06;97688.94;;;16.21;54.86
70254;BME280;57649;42.968;1.608;2024-02-21T12:42:43;97682.66;;;16.14;54.76
70254;BME280;57649;42.968;1.608;2024-02-21T12:45:13;97660.16;;;16.07;54.54
70254;BME280;57649;42.968;1.608;2024-02-21T12:47:40;97679.38;;;16.25;55.53
70254;BME280;57649;42.968;1.608;2024-02-21T12:50:11;97656.78;;;16.33;54.88
70254;BME280;57649;42.968;1.608;2024-02-21T12:52:41;97673.63;;;16.35;55.37
70254;BME280;57649;42.968;1.608;2024-02-21T12:55:07;97653.66;;;16.29;54.68
70254;BME280;57649;42.968;1.608;2024-02-21T12:57:40;97660.00;;;16.50;52.68
70254;BME280;57649;42.968;1.608;2024-02-21T13:00:06;97652.59;;;16.65;52.97
70254;BME280;57649;42.968;1.608;2024-02-21T13:02:37;97634.06;;;16.62;52.64
70254;BME280;57649;42.968;1.608;2024-02-21T13:05:02;97637.59;;;16.56;53.15
70254;BME280;57649;42.968;1.608;2024-02-21T13:07:31;97632.59;;;16.53;53.61
70254;BME280;57649;42.968;1.608;2024-02-21T13:09:57;97614.91;;;16.57;53.18
70254;BME280;57649;42.968;1.608;2024-02-21T13:12:23;97618.88;;;16.54;53.91
70254;BME280;57649;42.968;1.608;2024-02-21T13:14:48;97627.59;;;16.57;53.15
70254;BME280;57649;42.968;1.608;2024-02-21T13:17:14;97626.78;;;16.63;53.90
70254;BME280;57649;42.968;1.608;2024-02-21T13:19:40;97617.28;;;16.73;53.69
70254;BME280;57649;42.968;1.608;2024-02-21T13:22:06;97626.19;;;16.67;52.57
70254;BME280;57649;42.968;1.608;2024-02-21T13:24:32;97627.06;;;16.74;53.92
70254;BME280;57649;42.968;1.608;2024-02-21T13:26:59;97618.34;;;16.79;55.07
70254;BME280;57649;42.968;1.608;2024-02-21T13:29:35;97597.13;;;16.76;54.18
70254;BME280;57649;42.968;1.608;2024-02-21T13:32:03;97610.31;;;16.92;55.16
70254;BME280;57649;42.968;1.608;2024-02-21T13:34:31;97598.03;;;16.83;54.40
70254;BME280;57649;42.968;1.608;2024-02-21T13:36:59;97600.31;;;16.93;54.95
70254;BME280;57649;42.968;1.608;2024-02-21T13:39:32;97583.69;;;16.89;54.77
70254;BME280;57649;42.968;1.608;2024-02-21T13:42:16;97574.50;;;16.90;54.01
70254;BME280;57649;42.968;1.608;2024-02-21T13:44:45;97600.44;;;16.71;53.54
70254;BME280;57649;42.968;1.608;2024-02-21T13:47:13;97590.16;;;16.47;54.50
70254;BME280;57649;42.968;1.608;2024-02-21T13:49:41;97604.09;;;16.57;54.12
70254;BME280;57649;42.968;1.608;2024-02-21T13:52:07;97592.63;;;16.42;53.88
70254;BME280;57649;42.968;1.608;2024-02-21T13:54:34;97571.16;;;16.27;54.12
70254;BME280;57649;42.968;1.608;2024-02-21T13:57:00;97582.06;;;16.47;54.25
70254;BME280;57649;42.968;1.608;2024-02-21T13:59:28;97570.38;;;16.40;52.40
70254;BME280;57649;42.968;1.608;2024-02-21T14:01:54;97588.41;;;16.32;52.49
70254;BME280;57649;42.968;1.608;2024-02-21T14:04:19;97577.63;;;16.39;53.04
70254;BME280;57649;42.968;1.608;2024-02-21T14:06:45;97576.34;;;16.28;53.93
70254;BME280;57649;42.968;1.608;2024-02-21T14:09:11;97570.72;;;16.30;54.37
70254;BME280;57649;42.968;1.608;2024-02-21T14:11:36;97564.69;;;16.28;54.45
70254;BME280;57649;42.968;1.608;2024-02-21T14:14:06;97568.44;;;16.27;55.39
70254;BME280;57649;42.968;1.608;2024-02-21T14:16:32;97557.88;;;16.39;55.18
70254;BME280;57649;42.968;1.608;2024-02-21T14:18:57;97565.16;;;16.38;54.88